Time;durP1;ratioP1;P1;durP2;ratioP2;P2;SDS_P1;SDS_P2;PMS_P1;PMS_P2;Temp;Humidity;BMP_temperature;BMP_pressure;BME280_temperature;BME280_humidity;BME280_pressure;Samples;Min_cycle;Max_cycle;Signal;HPM_P1;HPM_P2
2023/06/15 00:00:15;;;;;;;0.70;0.50;;;17.60;99.90;;;;;;5082491;28;20576;-69
2023/06/15 00:02:43;;;;;;;1.65;0.85;;;17.50;99.90;;;;;;5088729;28;20199;-69
2023/06/15 00:05:11;;;;;;;0.93;0.80;;;17.50;99.90;;;;;;5092544;28;20233;-69
2023/06/15 00:07:39;;;;;;;0.60;0.40;;;17.50;99.90;;;;;;5095492;28;20206;-69
2023/06/15 00:10:08;;;;;;;0.80;0.70;;;17.50;99.90;;;;;;5098866;28;20223;-69
2023/06/15 00:12:36;;;;;;;1.00;0.70;;;17.50;99.90;;;;;;5088571;28;20203;-69
2023/06/15 00:15:06;;;;;;;0.60;0.47;;;17.50;99.90;;;;;;5090004;28;20243;-68
2023/06/15 00:17:37;;;;;;;1.92;1.08;;;17.40;99.90;;;;;;5088926;28;20206;-69
2023/06/15 00:20:09;;;;;;;0.90;0.60;;;17.40;99.90;;;;;;5089985;28;20689;-69
2023/06/15 00:22:38;;;;;;;0.70;0.47;;;17.40;99.90;;;;;;5078594;28;20198;-68
2023/06/15 00:25:06;;;;;;;0.90;0.60;;;17.30;99.90;;;;;;5083692;28;20280;-68
2023/06/15 00:27:35;;;;;;;0.65;0.50;;;17.30;99.90;;;;;;5095014;28;20202;-68
2023/06/15 00:30:04;;;;;;;1.40;0.82;;;17.30;99.90;;;;;;5093908;28;20722;-68
2023/06/15 00:32:33;;;;;;;0.70;0.52;;;17.30;99.90;;;;;;5106695;28;20211;-67
2023/06/15 00:35:01;;;;;;;0.60;0.50;;;17.30;99.90;;;;;;5090802;28;20218;-67
2023/06/15 00:37:29;;;;;;;0.70;0.50;;;17.30;99.90;;;;;;5111412;28;20614;-69
2023/06/15 00:39:57;;;;;;;0.60;0.50;;;17.20;99.90;;;;;;5110349;28;20202;-68
2023/06/15 00:42:25;;;;;;;0.93;0.80;;;17.20;99.90;;;;;;5111291;28;20198;-68
2023/06/15 00:44:53;;;;;;;0.70;0.47;;;17.20;99.90;;;;;;5110874;28;20222;-69
2023/06/15 00:47:22;;;;;;;1.40;1.10;;;17.10;99.90;;;;;;5110719;28;20615;-69
2023/06/15 00:49:52;;;;;;;0.60;0.50;;;17.20;99.90;;;;;;5105897;28;20205;-69
2023/06/15 00:52:21;;;;;;;0.75;0.60;;;17.20;99.90;;;;;;5091169;28;20506;-68
2023/06/15 00:54:50;;;;;;;0.90;0.60;;;17.10;99.90;;;;;;5090366;28;20272;-68
2023/06/15 00:57:18;;;;;;;0.70;0.60;;;17.20;99.90;;;;;;5109850;28;20782;-69
2023/06/15 00:59:46;;;;;;;0.80;0.80;;;17.20;99.90;;;;;;5110318;28;20276;-68
2023/06/15 01:02:14;;;;;;;0.80;0.70;;;17.20;99.90;;;;;;5109843;28;20569;-67
2023/06/15 01:04:42;;;;;;;1.00;0.80;;;17.20;99.90;;;;;;5110056;28;20226;-68
2023/06/15 01:07:12;;;;;;;0.60;0.40;;;17.20;99.90;;;;;;5107229;28;20580;-68
2023/06/15 01:09:43;;;;;;;0.70;0.70;;;17.10;99.90;;;;;;5100252;28;20214;-68
2023/06/15 01:12:14;;;;;;;0.70;0.70;;;17.10;99.90;;;;;;5101789;28;20700;-67
2023/06/15 01:14:44;;;;;;;1.27;0.80;;;17.10;99.90;;;;;;5109530;28;20278;-67
2023/06/15 01:17:15;;;;;;;0.80;0.50;;;17.10;99.90;;;;;;5110074;28;20210;-67
2023/06/15 01:19:53;;;;;;;0.70;0.60;;;17.00;99.90;;;;;;5109587;28;20212;-68
2023/06/15 01:22:34;;;;;;;0.70;0.60;;;17.00;99.90;;;;;;5091026;28;20207;-67
2023/06/15 01:25:15;;;;;;;0.65;0.60;;;17.00;99.90;;;;;;5089430;28;20226;-68
2023/06/15 01:27:49;;;;;;;1.60;0.90;;;17.00;99.90;;;;;;5109483;28;20614;-67
2023/06/15 01:30:17;;;;;;;0.90;0.60;;;17.00;99.90;;;;;;5108391;28;20227;-69
2023/06/15 01:32:45;;;;;;;0.70;0.63;;;17.00;99.90;;;;;;5109664;28;20287;-68
2023/06/15 01:35:13;;;;;;;1.08;1.00;;;16.90;99.90;;;;;;5109071;28;20227;-68
2023/06/15 01:37:48;;;;;;;1.40;0.80;;;16.90;99.90;;;;;;5109673;28;20672;-68
2023/06/15 01:40:17;;;;;;;0.60;0.60;;;16.90;99.90;;;;;;5107971;28;20644;-68
2023/06/15 01:42:47;;;;;;;0.77;0.60;;;16.90;99.90;;;;;;5107317;28;20194;-68
2023/06/15 01:45:16;;;;;;;0.68;0.55;;;16.80;99.90;;;;;;5108863;28;20232;-69
2023/06/15 01:47:45;;;;;;;0.60;0.40;;;16.80;99.90;;;;;;5109012;28;20202;-67
2023/06/15 01:50:14;;;;;;;0.70;0.60;;;16.80;99.90;;;;;;5107434;28;20974;-69
2023/06/15 01:52:41;;;;;;;0.68;0.60;;;16.70;99.90;;;;;;5089500;28;20207;-69
2023/06/15 01:55:10;;;;;;;0.80;0.60;;;16.70;99.90;;;;;;5096583;28;20276;-69
2023/06/15 01:57:39;;;;;;;0.70;0.60;;;16.70;99.90;;;;;;5103759;28;20233;-68
2023/06/15 02:00:10;;;;;;;1.13;1.00;;;16.80;99.90;;;;;;5106393;28;20202;-68
2023/06/15 02:02:39;;;;;;;0.65;0.65;;;16.80;99.90;;;;;;5110526;28;20227;-69
2023/06/15 02:05:08;;;;;;;1.35;0.60;;;16.80;99.90;;;;;;5112350;28;20233;-68
2023/06/15 02:07:36;;;;;;;1.27;1.00;;;16.80;99.90;;;;;;5104228;28;20201;-69
2023/06/15 02:10:04;;;;;;;0.80;0.60;;;16.80;99.90;;;;;;5105007;28;20243;-68
2023/06/15 02:12:32;;;;;;;1.10;0.60;;;16.80;99.90;;;;;;5112317;28;20656;-70
2023/06/15 02:15:01;;;;;;;0.70;0.52;;;16.80;99.90;;;;;;5103131;28;20242;-68
2023/06/15 02:17:32;;;;;;;0.70;0.50;;;16.70;99.90;;;;;;5090718;28;20195;-69
2023/06/15 02:20:00;;;;;;;0.60;0.50;;;16.70;99.90;;;;;;5088287;28;20202;-68
2023/06/15 02:22:28;;;;;;;0.80;0.70;;;16.70;99.90;;;;;;5090091;28;20202;-68
2023/06/15 02:24:56;;;;;;;1.20;0.80;;;16.70;99.90;;;;;;5093053;28;20229;-68
2023/06/15 02:27:24;;;;;;;0.70;0.60;;;16.70;99.90;;;;;;5079319;28;20213;-68
2023/06/15 02:29:52;;;;;;;0.90;0.70;;;16.70;99.90;;;;;;5087771;28;20209;-69
2023/06/15 02:32:34;;;;;;;0.70;0.55;;;16.70;99.90;;;;;;5086780;28;20693;-68
2023/06/15 02:35:04;;;;;;;1.25;1.15;;;16.70;99.90;;;;;;5092968;28;20271;-68
2023/06/15 02:37:33;;;;;;;0.70;0.60;;;16.70;99.90;;;;;;5085411;28;20668;-68
2023/06/15 02:40:01;;;;;;;0.80;0.70;;;16.60;99.90;;;;;;5092606;28;20700;-69
2023/06/15 02:42:29;;;;;;;0.88;0.60;;;16.60;99.90;;;;;;5092877;28;20691;-69
2023/06/15 02:44:57;;;;;;;0.70;0.52;;;16.50;99.90;;;;;;5092877;28;20245;-69
2023/06/15 02:47:24;;;;;;;1.17;0.98;;;16.50;99.90;;;;;;5092292;28;20210;-68
2023/06/15 02:49:54;;;;;;;1.20;0.80;;;16.50;99.90;;;;;;5091342;28;20241;-69
2023/06/15 02:52:22;;;;;;;0.60;0.50;;;16.40;99.90;;;;;;5089026;28;20701;-68
2023/06/15 02:54:50;;;;;;;0.90;0.65;;;16.40;99.90;;;;;;5075231;28;20230;-68
2023/06/15 02:57:18;;;;;;;0.90;0.70;;;16.40;99.90;;;;;;5093899;28;20194;-68
2023/06/15 02:59:46;;;;;;;0.70;0.60;;;16.50;99.90;;;;;;5092573;28;20236;-68
2023/06/15 03:02:14;;;;;;;0.93;0.60;;;16.40;99.90;;;;;;5092373;28;20210;-68
2023/06/15 03:04:47;;;;;;;0.70;0.68;;;16.30;99.90;;;;;;5092381;28;20230;-68
2023/06/15 03:07:17;;;;;;;0.93;0.70;;;16.30;99.90;;;;;;5083445;28;20225;-68
2023/06/15 03:09:47;;;;;;;0.70;0.68;;;16.30;99.90;;;;;;5094802;28;20217;-68
2023/06/15 03:12:15;;;;;;;1.05;0.77;;;16.30;99.90;;;;;;5080645;28;20215;-68
2023/06/15 03:14:44;;;;;;;0.60;0.50;;;16.30;99.90;;;;;;5085596;28;20600;-68
2023/06/15 03:17:15;;;;;;;1.35;0.80;;;16.30;99.90;;;;;;5091841;28;20206;-68
2023/06/15 03:19:43;;;;;;;0.75;0.70;;;16.30;99.90;;;;;;5092139;28;20567;-68
2023/06/15 03:22:11;;;;;;;1.00;1.00;;;16.40;99.90;;;;;;5091843;28;20210;-67
2023/06/15 03:24:41;;;;;;;0.70;0.60;;;16.40;99.90;;;;;;5095193;28;20271;-68
2023/06/15 03:27:11;;;;;;;1.10;0.98;;;16.30;99.90;;;;;;5106828;28;20668;-67
2023/06/15 03:29:39;;;;;;;1.05;0.70;;;16.30;99.90;;;;;;5109455;28;20201;-68
2023/06/15 03:32:08;;;;;;;1.10;0.80;;;16.30;99.90;;;;;;5109229;28;20228;-69
2023/06/15 03:34:36;;;;;;;0.93;0.68;;;16.30;99.90;;;;;;5109554;28;20229;-68
2023/06/15 03:37:05;;;;;;;0.80;0.70;;;16.30;99.90;;;;;;5107355;28;20580;-68
2023/06/15 03:39:34;;;;;;;1.48;1.13;;;16.30;99.90;;;;;;5092677;28;20205;-69
2023/06/15 03:42:04;;;;;;;1.00;1.00;;;16.40;99.90;;;;;;5105027;28;20199;-69
2023/06/15 03:44:31;;;;;;;0.90;0.73;;;16.30;99.90;;;;;;5109083;28;20226;-69
2023/06/15 03:47:00;;;;;;;1.08;0.80;;;16.30;99.90;;;;;;5108209;28;20198;-68
2023/06/15 03:49:28;;;;;;;0.70;0.60;;;16.30;99.90;;;;;;5107164;28;20230;-69
2023/06/15 03:51:56;;;;;;;1.15;0.90;;;16.30;99.90;;;;;;5102702;28;20608;-67
2023/06/15 03:54:24;;;;;;;0.70;0.70;;;16.40;99.90;;;;;;5093413;28;20226;-69
2023/06/15 03:56:52;;;;;;;1.05;0.98;;;16.40;99.90;;;;;;5108536;28;20206;-68
2023/06/15 03:59:23;;;;;;;1.50;0.80;;;16.40;99.90;;;;;;5096289;28;20203;-68
2023/06/15 04:01:51;;;;;;;1.23;0.68;;;16.40;99.90;;;;;;5108579;28;20194;-69
2023/06/15 04:04:19;;;;;;;1.20;1.10;;;16.40;99.90;;;;;;5108363;28;20225;-68
2023/06/15 04:06:47;;;;;;;0.70;0.70;;;16.40;99.90;;;;;;5108558;28;20205;-69
2023/06/15 04:09:16;;;;;;;0.85;0.50;;;16.40;99.90;;;;;;5101964;28;20229;-69
2023/06/15 04:11:44;;;;;;;0.70;0.68;;;16.40;99.90;;;;;;5099692;28;20230;-69
2023/06/15 04:14:12;;;;;;;0.88;0.57;;;16.50;99.90;;;;;;5100976;28;20987;-68
2023/06/15 04:16:41;;;;;;;1.17;0.70;;;16.50;99.90;;;;;;5095121;28;20251;-68
2023/06/15 04:19:09;;;;;;;0.70;0.70;;;16.60;99.90;;;;;;5078217;28;20214;-68
2023/06/15 04:21:37;;;;;;;0.70;0.60;;;16.60;99.90;;;;;;5087415;28;20684;-68
2023/06/15 04:24:06;;;;;;;0.60;0.60;;;16.60;99.90;;;;;;5074718;28;20243;-68
2023/06/15 04:26:35;;;;;;;0.85;0.82;;;16.60;99.90;;;;;;5075269;28;20287;-68
2023/06/15 04:29:04;;;;;;;1.77;0.90;;;16.70;99.90;;;;;;5072581;28;20215;-68
2023/06/15 04:31:33;;;;;;;1.00;0.90;;;16.70;99.90;;;;;;5078059;28;20218;-68
2023/06/15 04:34:04;;;;;;;0.98;0.88;;;16.70;99.90;;;;;;5075953;28;20226;-68
2023/06/15 04:36:38;;;;;;;0.80;0.80;;;16.80;99.90;;;;;;5077443;28;20573;-69
2023/06/15 04:39:06;;;;;;;0.70;0.50;;;16.80;99.90;;;;;;5076506;28;20236;-68
2023/06/15 04:41:35;;;;;;;0.80;0.70;;;16.90;99.90;;;;;;5075801;28;20198;-68
2023/06/15 04:44:03;;;;;;;1.55;0.70;;;16.90;99.90;;;;;;5076342;28;20426;-66
2023/06/15 04:46:32;;;;;;;0.90;0.80;;;17.00;99.90;;;;;;5075047;28;20203;-68
2023/06/15 04:49:00;;;;;;;1.30;0.90;;;17.10;99.90;;;;;;5074686;28;20207;-69
2023/06/15 04:51:30;;;;;;;1.45;0.70;;;17.10;99.90;;;;;;5076949;28;20719;-68
2023/06/15 04:53:58;;;;;;;0.73;0.50;;;17.20;99.90;;;;;;5075154;28;20748;-68
2023/06/15 04:56:26;;;;;;;0.80;0.73;;;17.30;99.90;;;;;;5077693;28;20226;-68
2023/06/15 04:58:54;;;;;;;0.80;0.70;;;17.40;99.90;;;;;;5073902;28;20211;-68
2023/06/15 05:01:22;;;;;;;1.00;0.90;;;17.50;99.90;;;;;;5075678;28;20214;-68
2023/06/15 05:03:51;;;;;;;0.73;0.73;;;17.50;99.90;;;;;;5076876;28;20258;-68
2023/06/15 05:06:19;;;;;;;0.80;0.70;;;17.60;99.90;;;;;;5076493;28;20289;-68
2023/06/15 05:08:48;;;;;;;1.25;0.80;;;17.70;99.90;;;;;;5073881;28;20206;-68
2023/06/15 05:11:17;;;;;;;2.05;0.60;;;17.80;99.90;;;;;;5075974;28;20234;-68
2023/06/15 05:13:44;;;;;;;0.70;0.60;;;17.90;99.90;;;;;;5076656;28;20234;-68
2023/06/15 05:16:12;;;;;;;1.00;0.77;;;18.00;99.90;;;;;;5073080;28;20246;-68
2023/06/15 05:18:41;;;;;;;0.63;0.50;;;18.10;99.90;;;;;;5073072;28;20221;-68
2023/06/15 05:21:10;;;;;;;1.67;0.52;;;18.10;99.90;;;;;;5077402;28;20303;-68
2023/06/15 05:23:38;;;;;;;0.60;0.55;;;18.20;99.90;;;;;;5075083;28;20241;-68
2023/06/15 05:26:08;;;;;;;1.00;0.85;;;18.30;99.90;;;;;;5073977;28;20268;-68
2023/06/15 05:28:55;;;;;;;0.88;0.68;;;18.40;99.90;;;;;;5073560;28;20211;-68
2023/06/15 05:31:23;;;;;;;0.60;0.50;;;18.50;99.90;;;;;;5075696;28;20222;-68
2023/06/15 05:33:51;;;;;;;0.80;0.70;;;18.50;99.90;;;;;;5074522;28;20260;-68
2023/06/15 05:36:19;;;;;;;0.80;0.40;;;18.60;99.90;;;;;;5076898;28;20210;-68
2023/06/15 05:39:07;;;;;;;0.60;0.50;;;18.60;99.90;;;;;;5080675;28;20297;-68
2023/06/15 05:41:37;;;;;;;1.20;0.80;;;18.70;99.90;;;;;;5078760;28;20217;-68
2023/06/15 05:44:06;;;;;;;1.00;0.90;;;18.80;99.90;;;;;;5076429;28;20794;-68
2023/06/15 05:46:34;;;;;;;0.80;0.73;;;18.80;99.90;;;;;;5075711;28;20203;-68
2023/06/15 05:49:02;;;;;;;0.70;0.70;;;18.90;99.90;;;;;;5077233;28;20207;-68
2023/06/15 05:51:30;;;;;;;0.80;0.60;;;19.00;99.90;;;;;;5079281;28;20207;-68
2023/06/15 05:53:57;;;;;;;1.02;0.82;;;19.10;99.90;;;;;;5080746;28;20227;-68
2023/06/15 05:56:26;;;;;;;0.60;0.50;;;19.10;99.90;;;;;;5077954;28;20701;-69
2023/06/15 05:58:55;;;;;;;0.70;0.60;;;19.10;99.90;;;;;;5080394;28;20195;-69
2023/06/15 06:01:23;;;;;;;0.70;0.63;;;19.30;99.90;;;;;;5093740;28;20210;-69
2023/06/15 06:03:51;;;;;;;0.70;0.60;;;19.40;99.90;;;;;;5094619;28;20224;-66
2023/06/15 06:06:19;;;;;;;0.85;0.75;;;19.50;99.90;;;;;;5114154;28;20214;-65
2023/06/15 06:08:47;;;;;;;0.80;0.80;;;19.60;99.90;;;;;;5108472;28;20581;-66
2023/06/15 06:11:15;;;;;;;0.60;0.50;;;19.70;99.90;;;;;;5114391;28;20658;-66
2023/06/15 06:13:43;;;;;;;0.80;0.63;;;19.80;99.90;;;;;;5091324;28;20287;-66
2023/06/15 06:16:14;;;;;;;1.45;0.70;;;19.90;99.90;;;;;;5114317;28;20669;-69
2023/06/15 06:18:42;;;;;;;0.70;0.40;;;20.00;99.90;;;;;;5097366;28;20213;-71
2023/06/15 06:21:10;;;;;;;1.40;0.77;;;20.10;99.90;;;;;;5108686;28;20670;-65
2023/06/15 06:23:39;;;;;;;0.93;0.80;;;20.20;99.90;;;;;;5112711;28;20697;-71
2023/06/15 06:26:07;;;;;;;0.70;0.70;;;20.30;99.90;;;;;;5113930;28;20264;-66
2023/06/15 06:28:35;;;;;;;0.70;0.60;;;20.30;99.90;;;;;;5103204;28;20207;-64
2023/06/15 06:31:03;;;;;;;0.70;0.50;;;20.20;99.90;;;;;;5079771;28;20227;-65
2023/06/15 06:33:32;;;;;;;0.70;0.57;;;20.00;99.90;;;;;;5091474;28;20231;-64
2023/06/15 06:36:00;;;;;;;0.70;0.55;;;20.10;99.90;;;;;;5092509;28;20578;-65
2023/06/15 06:38:28;;;;;;;1.10;0.50;;;20.20;99.90;;;;;;5092819;28;20670;-64
2023/06/15 06:40:56;;;;;;;0.70;0.50;;;20.30;99.90;;;;;;5092079;28;20210;-64
2023/06/15 06:43:24;;;;;;;0.70;0.50;;;20.30;99.90;;;;;;5093054;28;20453;-64
2023/06/15 06:45:52;;;;;;;0.70;0.60;;;20.30;99.90;;;;;;5093379;28;20206;-65
2023/06/15 06:48:20;;;;;;;1.10;0.70;;;20.40;99.90;;;;;;5091833;28;20211;-64
2023/06/15 06:50:49;;;;;;;1.02;0.95;;;20.40;99.90;;;;;;5092947;28;20203;-64
2023/06/15 06:53:17;;;;;;;0.80;0.70;;;20.40;99.90;;;;;;5092885;28;20608;-64
2023/06/15 06:55:47;;;;;;;0.60;0.50;;;20.60;99.90;;;;;;5085000;28;20207;-64
2023/06/15 06:58:15;;;;;;;0.60;0.60;;;20.70;99.90;;;;;;5092772;28;20211;-64
2023/06/15 07:00:43;;;;;;;0.63;0.55;;;20.80;99.90;;;;;;5093051;28;20214;-64
2023/06/15 07:03:11;;;;;;;0.70;0.50;;;20.80;99.90;;;;;;5093110;28;20665;-65
2023/06/15 07:05:40;;;;;;;0.70;0.70;;;20.90;99.90;;;;;;5092736;28;20247;-65
2023/06/15 07:08:09;;;;;;;0.73;0.60;;;20.90;99.90;;;;;;5092396;28;20216;-64
2023/06/15 07:10:37;;;;;;;0.70;0.60;;;21.10;99.90;;;;;;5092744;28;20577;-64
2023/06/15 07:13:05;;;;;;;0.90;0.75;;;21.10;99.90;;;;;;5092956;28;20702;-64
2023/06/15 07:15:33;;;;;;;1.23;0.75;;;21.20;99.90;;;;;;5092179;28;20226;-64
2023/06/15 07:18:01;;;;;;;1.00;0.60;;;21.20;99.90;;;;;;5092094;28;20212;-64
2023/06/15 07:20:29;;;;;;;0.70;0.70;;;21.30;99.90;;;;;;5092581;28;20274;-64
2023/06/15 07:22:57;;;;;;;1.15;0.88;;;21.50;99.90;;;;;;5092647;28;20200;-64
2023/06/15 07:25:26;;;;;;;1.17;0.70;;;21.60;99.90;;;;;;5092213;28;20292;-64
2023/06/15 07:27:54;;;;;;;0.90;0.77;;;21.80;99.90;;;;;;5092008;28;20227;-64
2023/06/15 07:30:22;;;;;;;0.68;0.60;;;22.00;99.90;;;;;;5092405;28;20282;-64
2023/06/15 07:32:50;;;;;;;0.70;0.70;;;22.00;99.90;;;;;;5092539;28;20234;-64
2023/06/15 07:35:18;;;;;;;0.80;0.60;;;22.10;99.90;;;;;;5092267;28;20226;-64
2023/06/15 07:37:46;;;;;;;0.80;0.68;;;22.20;99.90;;;;;;5091903;28;20232;-64
2023/06/15 07:40:14;;;;;;;0.60;0.40;;;22.30;99.90;;;;;;5091982;28;20206;-64
2023/06/15 07:42:44;;;;;;;0.80;0.43;;;22.40;99.60;;;;;;5092407;28;20617;-64
2023/06/15 07:45:12;;;;;;;0.68;0.47;;;22.30;99.90;;;;;;5092059;28;20643;-64
2023/06/15 07:47:42;;;;;;;0.60;0.50;;;22.30;99.90;;;;;;5091944;28;20588;-64
2023/06/15 07:50:11;;;;;;;0.77;0.70;;;22.40;99.00;;;;;;5092071;28;20315;-64
2023/06/15 07:52:38;;;;;;;0.70;0.70;;;22.40;99.30;;;;;;5091841;28;20211;-65
2023/06/15 07:55:07;;;;;;;0.70;0.52;;;22.60;99.80;;;;;;5091593;28;20229;-65
2023/06/15 07:57:36;;;;;;;0.75;0.55;;;22.70;98.40;;;;;;5091748;28;20232;-64
2023/06/15 08:00:07;;;;;;;0.70;0.55;;;22.60;98.00;;;;;;5091157;28;20209;-65
2023/06/15 08:02:35;;;;;;;0.80;0.70;;;22.90;98.70;;;;;;5091521;28;20212;-64
2023/06/15 08:05:03;;;;;;;0.60;0.50;;;23.10;97.00;;;;;;5091753;28;20235;-64
2023/06/15 08:07:32;;;;;;;0.60;0.52;;;23.30;97.20;;;;;;5091857;28;20207;-64
2023/06/15 08:10:00;;;;;;;0.70;0.70;;;23.30;97.10;;;;;;5091392;28;20200;-65
2023/06/15 08:12:28;;;;;;;0.75;0.75;;;23.40;97.00;;;;;;5091419;28;20714;-64
2023/06/15 08:14:56;;;;;;;0.70;0.70;;;23.40;96.80;;;;;;5091162;28;20254;-64
2023/06/15 08:17:26;;;;;;;0.70;0.70;;;23.40;96.20;;;;;;5091477;28;20213;-65
2023/06/15 08:19:54;;;;;;;0.80;0.80;;;23.40;96.80;;;;;;5091420;28;20246;-64
2023/06/15 08:22:22;;;;;;;0.70;0.70;;;23.60;95.80;;;;;;5091400;28;20212;-65
2023/06/15 08:24:50;;;;;;;0.60;0.47;;;23.70;96.10;;;;;;5083094;28;20546;-64
2023/06/15 08:27:18;;;;;;;0.70;0.70;;;24.00;96.60;;;;;;5091628;28;20223;-64
2023/06/15 08:29:48;;;;;;;0.75;0.60;;;24.10;95.00;;;;;;5090839;28;20200;-65
2023/06/15 08:32:16;;;;;;;0.70;0.60;;;24.30;94.30;;;;;;5091651;28;20715;-65
2023/06/15 08:34:45;;;;;;;0.80;0.60;;;24.50;92.80;;;;;;5090770;28;20233;-64
2023/06/15 08:37:14;;;;;;;1.02;0.60;;;24.60;92.20;;;;;;5091487;28;20574;-64
2023/06/15 08:39:42;;;;;;;0.70;0.43;;;24.20;92.70;;;;;;5090593;28;20225;-65
2023/06/15 08:42:10;;;;;;;0.60;0.50;;;24.40;94.50;;;;;;5091203;28;20642;-65
2023/06/15 08:44:41;;;;;;;0.82;0.82;;;24.60;93.00;;;;;;5090733;28;20641;-65
2023/06/15 08:47:09;;;;;;;0.70;0.57;;;24.60;92.50;;;;;;5091669;28;20220;-64
2023/06/15 08:49:38;;;;;;;0.93;0.82;;;24.70;92.40;;;;;;5090794;28;20300;-65
2023/06/15 08:52:09;;;;;;;0.80;0.80;;;24.80;92.50;;;;;;5091125;28;20212;-65
2023/06/15 08:54:41;;;;;;;0.60;0.47;;;24.90;92.30;;;;;;5085628;28;20228;-64
2023/06/15 08:57:10;;;;;;;1.60;1.30;;;25.10;92.50;;;;;;5090892;28;20213;-64
2023/06/15 08:59:38;;;;;;;0.70;0.60;;;25.20;91.50;;;;;;5090299;28;20581;-65
2023/06/15 09:02:12;;;;;;;0.60;0.50;;;25.50;91.80;;;;;;5090877;28;20213;-65
2023/06/15 09:04:40;;;;;;;0.60;0.50;;;25.70;90.90;;;;;;5090048;28;20221;-65
2023/06/15 09:07:12;;;;;;;0.80;0.60;;;25.80;90.60;;;;;;5090811;28;20208;-65
2023/06/15 09:10:01;;;;;;;0.90;0.80;;;25.90;91.90;;;;;;5089850;28;20244;-65
2023/06/15 09:12:29;;;;;;;0.80;0.70;;;25.80;90.70;;;;;;5089402;28;20210;-65
2023/06/15 09:14:57;;;;;;;0.90;0.60;;;26.00;88.90;;;;;;5089947;28;20222;-65
2023/06/15 09:17:28;;;;;;;0.70;0.60;;;25.90;89.40;;;;;;5090565;28;20208;-65
2023/06/15 09:19:56;;;;;;;0.90;0.60;;;25.90;89.40;;;;;;5090142;28;20631;-64
2023/06/15 09:22:25;;;;;;;0.82;0.75;;;25.80;90.60;;;;;;5087359;28;20213;-64
2023/06/15 09:24:55;;;;;;;0.60;0.50;;;25.90;90.70;;;;;;5090031;28;20221;-65
2023/06/15 09:27:23;;;;;;;0.95;0.68;;;25.90;89.50;;;;;;5090855;28;20535;-65
2023/06/15 09:30:07;;;;;;;0.90;0.63;;;26.10;91.30;;;;;;5090145;28;20213;-65
2023/06/15 09:32:35;;;;;;;1.30;0.63;;;26.30;88.30;;;;;;5090397;28;20584;-65
2023/06/15 09:35:04;;;;;;;0.70;0.60;;;25.90;89.50;;;;;;5090035;28;20236;-65
2023/06/15 09:37:34;;;;;;;0.80;0.60;;;26.00;90.10;;;;;;5090488;28;20206;-65
2023/06/15 09:40:04;;;;;;;1.27;0.80;;;26.00;89.10;;;;;;5090177;28;20219;-65
2023/06/15 09:42:33;;;;;;;0.73;0.68;;;26.10;88.20;;;;;;5090370;28;20263;-65
2023/06/15 09:45:03;;;;;;;0.70;0.60;;;26.20;89.10;;;;;;5089825;28;20703;-65
2023/06/15 09:47:32;;;;;;;0.82;0.70;;;26.40;88.20;;;;;;5090330;28;20209;-65
2023/06/15 09:50:00;;;;;;;0.70;0.63;;;26.50;90.30;;;;;;5090092;28;20213;-65
2023/06/15 09:52:28;;;;;;;0.70;0.60;;;26.70;87.20;;;;;;5090194;28;20206;-65
2023/06/15 09:54:59;;;;;;;0.95;0.75;;;26.60;89.00;;;;;;5089761;28;20221;-64
2023/06/15 09:57:28;;;;;;;0.90;0.70;;;26.60;88.30;;;;;;5090376;28;20209;-65
2023/06/15 09:59:56;;;;;;;0.90;0.57;;;26.90;90.00;;;;;;5081818;28;20225;-65
2023/06/15 10:02:24;;;;;;;0.70;0.68;;;27.00;89.50;;;;;;5090414;28;20202;-65
2023/06/15 10:04:52;;;;;;;0.60;0.40;;;26.80;88.20;;;;;;5089576;28;20225;-65
2023/06/15 10:07:21;;;;;;;0.73;0.73;;;27.00;88.80;;;;;;5090294;28;20213;-65
2023/06/15 10:09:51;;;;;;;1.00;0.70;;;27.10;87.30;;;;;;5089808;28;20486;-65
2023/06/15 10:12:23;;;;;;;0.90;0.90;;;27.10;86.60;;;;;;5090576;28;20207;-65
2023/06/15 10:14:56;;;;;;;0.70;0.50;;;27.40;87.40;;;;;;5115185;22;20229;-63
2023/06/15 10:17:32;;;;;;;0.90;0.80;;;27.80;85.80;;;;;;5111588;28;20224;-62
2023/06/15 10:20:08;;;;;;;2.05;1.13;;;27.50;85.40;;;;;;5110894;28;20208;-63
2023/06/15 10:22:45;;;;;;;0.68;0.50;;;27.10;85.60;;;;;;5098031;28;20220;-63
2023/06/15 10:25:15;;;;;;;1.00;0.80;;;27.10;87.10;;;;;;5092439;28;20229;-63
2023/06/15 10:27:45;;;;;;;0.75;0.75;;;27.40;86.70;;;;;;5095245;28;20208;-63
2023/06/15 10:30:21;;;;;;;1.35;0.80;;;27.70;85.30;;;;;;5094486;28;20305;-63
2023/06/15 10:32:55;;;;;;;0.60;0.60;;;27.40;85.60;;;;;;5094263;28;20664;-63
2023/06/15 10:35:30;;;;;;;0.70;0.60;;;26.90;86.40;;;;;;5093090;28;20225;-63
2023/06/15 10:38:11;;;;;;;0.70;0.70;;;26.50;87.20;;;;;;5078062;28;20198;-62
2023/06/15 10:40:47;;;;;;;0.60;0.50;;;26.60;88.90;;;;;;5093801;28;20270;-63
2023/06/15 10:43:20;;;;;;;0.73;0.50;;;26.60;85.90;;;;;;5094141;28;20209;-63
2023/06/15 10:45:48;;;;;;;1.25;0.50;;;26.60;84.90;;;;;;5093318;28;20233;-63
2023/06/15 10:48:26;;;;;;;1.02;0.65;;;26.40;84.80;;;;;;5093437;28;20566;-63
2023/06/15 10:51:03;;;;;;;0.80;0.70;;;26.00;86.30;;;;;;5093239;28;20201;-63
2023/06/15 10:53:36;;;;;;;0.77;0.70;;;25.80;87.20;;;;;;5069896;28;20664;-63
2023/06/15 10:56:14;;;;;;;0.70;0.60;;;25.80;87.40;;;;;;5077386;28;20222;-63
2023/06/15 10:58:58;;;;;;;0.60;0.40;;;26.40;88.70;;;;;;5093571;28;20206;-63
2023/06/15 11:01:27;;;;;;;1.17;0.80;;;27.10;84.80;;;;;;5094320;28;20203;-64
2023/06/15 11:03:56;;;;;;;1.05;0.95;;;27.80;87.60;;;;;;5093657;28;20191;-63
2023/06/15 11:06:31;;;;;;;1.20;0.60;;;28.30;84.40;;;;;;5093523;28;20221;-63
2023/06/15 11:09:03;;;;;;;0.70;0.60;;;28.50;82.70;;;;;;5077514;28;20206;-64
2023/06/15 11:11:33;;;;;;;0.60;0.50;;;28.70;80.40;;;;;;5093943;28;20228;-64
2023/06/15 11:14:04;;;;;;;0.60;0.50;;;29.00;80.00;;;;;;5078764;28;20260;-63
2023/06/15 11:16:33;;;;;;;0.63;0.60;;;28.90;79.30;;;;;;5092242;28;20230;-63
2023/06/15 11:19:23;;;;;;;0.90;0.80;;;29.00;78.10;;;;;;5076229;28;20204;-63
2023/06/15 11:21:59;;;;;;;0.73;0.68;;;29.00;76.00;;;;;;5086327;28;20203;-63
2023/06/15 11:24:29;;;;;;;0.60;0.50;;;29.40;76.80;;;;;;5071573;28;20207;-64
2023/06/15 11:27:03;;;;;;;1.30;1.00;;;29.90;76.00;;;;;;5091980;28;20209;-63
2023/06/15 11:29:35;;;;;;;0.60;0.55;;;29.80;74.40;;;;;;5091470;28;20240;-63
2023/06/15 11:32:05;;;;;;;0.70;0.60;;;30.00;74.30;;;;;;5076490;28;20672;-63
2023/06/15 11:34:33;;;;;;;1.03;0.90;;;30.30;74.20;;;;;;5090937;28;20230;-64
2023/06/15 11:37:02;;;;;;;0.80;0.77;;;30.40;74.10;;;;;;5071594;28;20678;-63
2023/06/15 11:39:30;;;;;;;1.33;1.23;;;29.70;72.70;;;;;;5072109;28;20666;-63
2023/06/15 11:42:00;;;;;;;0.60;0.40;;;29.60;73.60;;;;;;5071482;28;20199;-63
2023/06/15 11:44:28;;;;;;;0.68;0.47;;;29.10;71.80;;;;;;5071579;28;20290;-63
2023/06/15 11:46:59;;;;;;;0.80;0.80;;;28.70;71.80;;;;;;5071205;28;20282;-64
2023/06/15 11:49:33;;;;;;;1.00;0.90;;;28.30;71.90;;;;;;5071284;28;20463;-63
2023/06/15 11:52:01;;;;;;;0.73;0.70;;;28.60;74.10;;;;;;5067657;28;20207;-64
2023/06/15 11:54:29;;;;;;;1.25;0.88;;;28.90;72.40;;;;;;5086386;28;20671;-64
2023/06/15 11:57:17;;;;;;;0.80;0.73;;;29.20;72.40;;;;;;5079555;28;20293;-63
2023/06/15 11:59:45;;;;;;;0.80;0.68;;;29.40;72.60;;;;;;5090268;28;20206;-63
2023/06/15 12:02:15;;;;;;;0.70;0.63;;;30.40;72.50;;;;;;5091240;28;20624;-64
2023/06/15 12:04:43;;;;;;;0.80;0.80;;;30.40;69.40;;;;;;5090682;28;20660;-64
2023/06/15 12:07:12;;;;;;;1.90;0.97;;;29.80;69.00;;;;;;5091617;28;20199;-63
2023/06/15 12:10:03;;;;;;;0.60;0.50;;;29.60;71.40;;;;;;5091000;28;20656;-64
2023/06/15 12:12:31;;;;;;;1.02;0.75;;;28.50;72.70;;;;;;5091869;28;20207;-62
2023/06/15 12:15:00;;;;;;;0.70;0.60;;;28.10;73.00;;;;;;5048046;28;1071888;-64
2023/06/15 12:17:31;;;;;;;1.33;0.70;;;27.50;72.20;;;;;;5071998;28;20203;-62
2023/06/15 12:20:01;;;;;;;0.70;0.70;;;26.90;73.10;;;;;;5071241;28;20253;-63
2023/06/15 12:22:36;;;;;;;0.60;0.43;;;27.10;73.20;;;;;;5060261;28;20207;-63
2023/06/15 12:25:05;;;;;;;0.70;0.50;;;27.40;73.70;;;;;;5047681;28;20221;-64
2023/06/15 12:27:36;;;;;;;0.70;0.50;;;28.00;73.80;;;;;;5072098;28;20207;-64
2023/06/15 12:30:15;;;;;;;0.70;0.65;;;28.50;72.40;;;;;;5055143;28;20644;-64
2023/06/15 12:32:47;;;;;;;0.80;0.70;;;28.40;71.40;;;;;;5071583;28;20579;-63
2023/06/15 12:35:32;;;;;;;1.13;0.82;;;28.70;73.80;;;;;;5071289;28;20655;-64
2023/06/15 12:38:00;;;;;;;1.00;0.70;;;28.80;74.60;;;;;;5070725;28;20371;-63
2023/06/15 12:40:28;;;;;;;0.90;0.75;;;29.30;72.10;;;;;;5070576;28;20213;-63
2023/06/15 12:43:00;;;;;;;0.77;0.77;;;29.90;72.30;;;;;;5070906;28;20211;-63
2023/06/15 12:45:28;;;;;;;0.70;0.57;;;30.20;72.80;;;;;;5071349;28;20237;-64
2023/06/15 12:47:58;;;;;;;0.60;0.50;;;30.40;71.80;;;;;;5070806;28;20610;-63
2023/06/15 12:50:26;;;;;;;0.70;0.70;;;30.40;69.30;;;;;;5071116;28;20763;-63
2023/06/15 12:52:57;;;;;;;0.68;0.60;;;30.70;66.90;;;;;;5055465;28;20208;-64
2023/06/15 12:55:25;;;;;;;0.70;0.60;;;30.40;68.10;;;;;;5057079;28;20235;-64
2023/06/15 12:57:53;;;;;;;0.80;0.60;;;31.20;66.50;;;;;;5070528;28;20203;-64
2023/06/15 13:00:25;;;;;;;0.70;0.53;;;31.30;69.20;;;;;;5070700;28;20679;-63